Time;durP1;ratioP1;P1;durP2;ratioP2;P2;SDS_P1;SDS_P2;PMS_P1;PMS_P2;Temp;Humidity;BMP_temperature;BMP_pressure;BME280_temperature;BME280_humidity;BME280_pressure;Samples;Min_cycle;Max_cycle;Signal;HPM_P1;HPM_P2
2023/10/25 00:01:16;;;;;;;9.23;3.05;;;10.10;99.90;;;;;;5094899;28;20046;-88
2023/10/25 00:03:41;;;;;;;7.22;2.58;;;10.10;99.90;;;;;;5077949;28;20043;-88
2023/10/25 00:06:07;;;;;;;8.02;2.25;;;10.00;99.90;;;;;;5077167;28;20681;-87
2023/10/25 00:08:33;;;;;;;9.45;3.00;;;10.00;99.90;;;;;;5094306;28;20036;-88
2023/10/25 00:11:06;;;;;;;6.43;2.60;;;10.00;99.90;;;;;;5078314;28;20035;-88
2023/10/25 00:13:33;;;;;;;7.85;2.65;;;10.00;99.90;;;;;;5077751;28;20042;-88
2023/10/25 00:15:58;;;;;;;7.95;2.60;;;9.90;99.90;;;;;;5077866;28;20046;-88
2023/10/25 00:18:24;;;;;;;8.20;2.35;;;9.90;99.90;;;;;;5077906;28;20036;-88
2023/10/25 00:20:53;;;;;;;12.73;3.78;;;9.90;99.90;;;;;;5094376;28;20494;-87
2023/10/25 00:23:19;;;;;;;8.68;3.25;;;9.90;99.90;;;;;;5094423;28;20075;-88
2023/10/25 00:25:49;;;;;;;10.02;2.92;;;9.80;99.90;;;;;;5094382;28;20477;-87
2023/10/25 00:28:15;;;;;;;6.50;2.38;;;9.80;99.90;;;;;;5077506;28;20074;-87
2023/10/25 00:30:41;;;;;;;10.20;2.42;;;9.80;99.90;;;;;;5085693;28;20067;-87
2023/10/25 00:33:07;;;;;;;7.07;2.08;;;9.80;99.90;;;;;;5077202;28;20077;-88
2023/10/25 00:35:32;;;;;;;8.15;2.45;;;9.70;99.90;;;;;;5077525;28;20043;-88
2023/10/25 00:37:59;;;;;;;11.73;4.00;;;9.70;99.90;;;;;;5094231;28;20043;-88
2023/10/25 00:40:24;;;;;;;12.45;2.88;;;9.70;99.90;;;;;;5077406;28;20050;-88
2023/10/25 00:42:50;;;;;;;6.88;2.78;;;9.70;99.90;;;;;;5077134;28;20043;-88
2023/10/25 00:45:16;;;;;;;6.82;2.33;;;9.70;99.90;;;;;;5076907;28;20039;-88
2023/10/25 00:47:43;;;;;;;11.07;3.20;;;9.70;99.90;;;;;;5077545;28;20039;-87
2023/10/25 00:50:17;;;;;;;7.20;2.55;;;9.70;99.90;;;;;;5077116;28;20035;-87
2023/10/25 00:52:43;;;;;;;8.85;3.13;;;9.70;99.90;;;;;;5077132;28;20036;-88
2023/10/25 00:55:10;;;;;;;8.02;2.92;;;9.60;99.90;;;;;;5094124;28;20410;-87
2023/10/25 00:57:36;;;;;;;13.98;3.47;;;9.60;99.90;;;;;;5093877;28;20414;-88
2023/10/25 01:00:02;;;;;;;8.50;2.90;;;9.60;99.90;;;;;;5076730;28;20036;-88
2023/10/25 01:02:28;;;;;;;5.53;1.95;;;9.60;99.90;;;;;;5076757;28;20050;-88
2023/10/25 01:04:54;;;;;;;7.95;2.92;;;9.60;99.90;;;;;;5093645;28;20039;-87
2023/10/25 01:07:19;;;;;;;8.90;2.90;;;9.60;99.90;;;;;;5092751;28;20046;-88
2023/10/25 01:09:45;;;;;;;7.05;2.47;;;9.60;99.90;;;;;;5076814;28;20032;-87
2023/10/25 01:12:11;;;;;;;8.18;3.00;;;9.60;99.90;;;;;;5093527;28;20061;-88
2023/10/25 01:14:37;;;;;;;9.43;3.05;;;9.60;99.90;;;;;;5076750;28;20035;-88
2023/10/25 01:17:03;;;;;;;12.43;3.13;;;9.60;99.90;;;;;;5077023;28;20118;-88
2023/10/25 01:19:28;;;;;;;10.00;2.58;;;9.60;99.90;;;;;;5076750;28;20115;-88
2023/10/25 01:21:54;;;;;;;9.98;2.92;;;9.60;99.90;;;;;;5076793;28;20490;-88
2023/10/25 01:24:23;;;;;;;8.15;2.75;;;9.50;99.90;;;;;;5093561;28;20047;-88
2023/10/25 01:26:50;;;;;;;12.90;3.35;;;9.50;99.90;;;;;;5093739;28;20134;-88
2023/10/25 01:29:15;;;;;;;6.63;2.85;;;9.50;99.90;;;;;;5076635;28;20448;-88
2023/10/25 01:31:41;;;;;;;7.97;2.70;;;9.50;99.90;;;;;;5076825;28;20043;-88
2023/10/25 01:34:06;;;;;;;9.95;3.03;;;9.50;99.90;;;;;;5076566;28;20071;-88
2023/10/25 01:36:32;;;;;;;6.10;2.38;;;9.50;99.90;;;;;;5077294;28;20044;-88
2023/10/25 01:38:57;;;;;;;6.68;2.10;;;9.50;99.90;;;;;;5076610;28;20074;-88
2023/10/25 01:41:23;;;;;;;11.93;3.38;;;9.50;99.90;;;;;;5076262;28;20123;-88
2023/10/25 01:43:49;;;;;;;5.95;2.55;;;9.50;99.90;;;;;;5093565;28;20039;-88
2023/10/25 01:46:14;;;;;;;7.88;3.08;;;9.50;99.90;;;;;;5093137;28;20047;-87
2023/10/25 01:48:40;;;;;;;7.57;3.28;;;9.40;99.90;;;;;;5093493;28;20096;-88
2023/10/25 01:51:06;;;;;;;12.80;3.38;;;9.40;99.90;;;;;;5076628;28;20487;-88
2023/10/25 01:53:33;;;;;;;12.40;3.65;;;9.40;99.90;;;;;;5093436;28;20121;-88
2023/10/25 01:55:59;;;;;;;6.47;2.63;;;9.40;99.90;;;;;;5076462;28;20418;-87
2023/10/25 01:58:25;;;;;;;7.70;2.65;;;9.50;99.90;;;;;;5101781;28;20031;-87
2023/10/25 02:00:50;;;;;;;10.18;3.25;;;9.50;99.90;;;;;;5076469;28;20127;-87
2023/10/25 02:03:16;;;;;;;8.57;2.92;;;9.50;99.90;;;;;;5078204;28;20180;-87
2023/10/25 02:05:42;;;;;;;10.45;2.90;;;9.60;99.90;;;;;;5080544;28;20251;-87
2023/10/25 02:08:07;;;;;;;9.00;3.17;;;9.50;99.90;;;;;;5078690;28;20036;-87
2023/10/25 02:10:34;;;;;;;8.70;3.28;;;9.60;99.90;;;;;;5096838;28;20042;-87
2023/10/25 02:12:59;;;;;;;6.55;2.60;;;9.50;99.90;;;;;;5097297;28;20089;-87
2023/10/25 02:15:25;;;;;;;6.97;2.67;;;9.50;99.90;;;;;;5097032;28;20376;-87
2023/10/25 02:17:51;;;;;;;8.98;2.95;;;9.50;99.90;;;;;;5105269;28;20047;-88
2023/10/25 02:20:17;;;;;;;7.45;2.63;;;9.50;99.90;;;;;;5079829;28;20039;-88
2023/10/25 02:22:42;;;;;;;7.97;2.88;;;9.60;99.90;;;;;;5080075;28;20043;-88
2023/10/25 02:25:08;;;;;;;7.28;2.78;;;9.50;99.90;;;;;;5080095;28;20042;-88
2023/10/25 02:27:34;;;;;;;8.45;2.97;;;9.50;99.90;;;;;;5079851;28;20487;-88
2023/10/25 02:29:59;;;;;;;8.50;3.30;;;9.50;99.90;;;;;;5079350;28;20123;-88
2023/10/25 02:32:25;;;;;;;8.45;3.45;;;9.50;99.90;;;;;;5079873;28;20063;-88
2023/10/25 02:34:50;;;;;;;9.57;3.38;;;9.50;99.90;;;;;;5079576;28;20092;-88
2023/10/25 02:37:17;;;;;;;13.30;3.03;;;9.50;99.90;;;;;;5079743;28;20044;-88
2023/10/25 02:39:43;;;;;;;7.72;3.42;;;9.60;99.90;;;;;;5096696;28;20080;-87
2023/10/25 02:42:08;;;;;;;8.15;3.15;;;9.50;99.90;;;;;;5079636;28;20039;-87
2023/10/25 02:44:34;;;;;;;11.38;3.53;;;9.50;99.90;;;;;;5096203;28;20035;-87
2023/10/25 02:47:00;;;;;;;10.57;3.47;;;9.60;99.90;;;;;;5079453;28;20043;-87
2023/10/25 02:49:25;;;;;;;10.52;3.40;;;9.60;99.90;;;;;;5096619;28;20028;-87
2023/10/25 02:51:51;;;;;;;8.05;3.30;;;9.50;99.90;;;;;;5079581;28;20717;-87
2023/10/25 02:54:17;;;;;;;6.30;2.60;;;9.50;99.90;;;;;;5095864;28;20032;-88
2023/10/25 02:56:43;;;;;;;8.93;4.47;;;9.50;99.90;;;;;;5096114;28;20092;-87
2023/10/25 02:59:08;;;;;;;14.70;3.72;;;9.50;99.90;;;;;;5079350;28;20039;-88
2023/10/25 03:01:34;;;;;;;6.78;2.63;;;9.50;99.90;;;;;;5096104;28;20035;-87
2023/10/25 03:04:00;;;;;;;6.10;2.03;;;9.50;99.90;;;;;;5079148;28;20040;-87
2023/10/25 03:06:25;;;;;;;8.10;3.38;;;9.50;99.90;;;;;;5078987;28;20049;-87
2023/10/25 03:08:52;;;;;;;8.15;3.15;;;9.40;99.90;;;;;;5096292;28;20380;-87
2023/10/25 03:11:17;;;;;;;9.27;2.97;;;9.40;99.90;;;;;;5079217;28;20554;-87
2023/10/25 03:13:43;;;;;;;7.72;2.75;;;9.40;99.90;;;;;;5078901;28;20074;-88
2023/10/25 03:16:09;;;;;;;14.32;3.60;;;9.40;99.90;;;;;;5079398;28;20814;-88
2023/10/25 03:18:35;;;;;;;9.80;3.15;;;9.40;99.90;;;;;;5095279;28;20395;-88
2023/10/25 03:21:04;;;;;;;6.63;2.88;;;9.40;99.90;;;;;;5078714;28;20082;-88
2023/10/25 03:23:33;;;;;;;11.18;2.97;;;9.40;99.90;;;;;;5078635;28;20074;-87
2023/10/25 03:26:09;;;;;;;8.85;3.38;;;9.30;99.90;;;;;;5095751;28;20051;-88
2023/10/25 03:28:34;;;;;;;10.63;2.88;;;9.40;99.90;;;;;;5078527;28;20558;-87
2023/10/25 03:31:04;;;;;;;8.10;2.78;;;9.30;99.90;;;;;;5079242;28;20078;-88
2023/10/25 03:33:30;;;;;;;8.70;2.78;;;9.30;99.90;;;;;;5078712;28;20319;-88
2023/10/25 03:35:55;;;;;;;7.47;2.88;;;9.40;99.90;;;;;;5095682;28;20077;-87
2023/10/25 03:38:21;;;;;;;9.90;3.20;;;9.40;99.90;;;;;;5095372;28;20036;-88
2023/10/25 03:40:47;;;;;;;6.53;2.78;;;9.40;99.90;;;;;;5095274;28;20092;-88
2023/10/25 03:43:13;;;;;;;7.68;2.80;;;9.40;99.90;;;;;;5078462;28;20450;-88
2023/10/25 03:45:39;;;;;;;7.20;2.47;;;9.30;99.90;;;;;;5095341;28;20081;-88
2023/10/25 03:48:04;;;;;;;8.27;2.90;;;9.30;99.90;;;;;;5078622;28;20035;-88
2023/10/25 03:50:30;;;;;;;8.35;2.58;;;9.30;99.90;;;;;;5078121;28;20462;-88
2023/10/25 03:52:56;;;;;;;7.68;2.70;;;9.30;99.90;;;;;;5078329;28;20039;-88
2023/10/25 03:55:21;;;;;;;9.30;2.92;;;9.20;99.90;;;;;;5095225;28;20034;-87
2023/10/25 03:57:47;;;;;;;9.60;3.20;;;9.20;99.90;;;;;;5078387;28;20518;-85
2023/10/25 04:00:13;;;;;;;9.63;3.50;;;9.20;99.90;;;;;;5098146;28;20032;-86
2023/10/25 04:02:40;;;;;;;5.47;2.45;;;9.20;99.90;;;;;;5079533;28;20126;-87
2023/10/25 04:05:06;;;;;;;8.00;3.17;;;9.20;99.90;;;;;;5078898;28;20084;-86
2023/10/25 04:07:32;;;;;;;8.10;2.83;;;9.20;99.90;;;;;;5095342;28;20392;-88
2023/10/25 04:09:57;;;;;;;14.02;3.13;;;9.20;99.90;;;;;;5078265;28;20061;-87
2023/10/25 04:12:23;;;;;;;9.05;2.58;;;9.20;99.90;;;;;;5095425;28;20409;-86
2023/10/25 04:14:49;;;;;;;8.73;2.90;;;9.20;99.90;;;;;;5095128;28;20438;-87
2023/10/25 04:17:14;;;;;;;8.18;3.08;;;9.20;99.90;;;;;;5086880;28;20040;-87
2023/10/25 04:19:41;;;;;;;5.93;2.20;;;9.20;99.90;;;;;;5095528;28;20122;-87
2023/10/25 04:22:06;;;;;;;6.68;2.78;;;9.10;99.90;;;;;;5095571;28;20035;-86
2023/10/25 04:24:33;;;;;;;9.13;2.83;;;9.20;99.90;;;;;;5100848;28;20067;-87
2023/10/25 04:27:01;;;;;;;8.35;2.90;;;9.10;99.90;;;;;;5080849;28;20047;-87
2023/10/25 04:29:28;;;;;;;8.23;2.95;;;9.10;99.90;;;;;;5077656;28;20036;-87
2023/10/25 04:31:53;;;;;;;10.07;2.88;;;9.10;99.90;;;;;;5076934;28;20130;-87
2023/10/25 04:34:19;;;;;;;7.50;2.92;;;9.10;99.90;;;;;;5077948;28;20236;-87
2023/10/25 04:36:45;;;;;;;11.20;3.67;;;9.10;99.90;;;;;;5077833;28;20043;-87
2023/10/25 04:39:10;;;;;;;8.98;3.35;;;9.00;99.90;;;;;;5077734;28;20079;-87
2023/10/25 04:41:36;;;;;;;11.10;2.75;;;9.00;99.90;;;;;;5077471;28;20044;-87
2023/10/25 04:44:01;;;;;;;7.95;2.65;;;9.00;99.90;;;;;;5094874;28;20036;-86
2023/10/25 04:46:27;;;;;;;13.65;6.93;;;9.00;99.90;;;;;;5094427;28;20040;-87
2023/10/25 04:48:53;;;;;;;8.57;2.83;;;9.10;99.90;;;;;;5077677;28;20066;-87
2023/10/25 04:51:18;;;;;;;8.32;2.40;;;9.10;99.90;;;;;;5077668;28;20417;-87
2023/10/25 04:53:46;;;;;;;10.43;3.08;;;9.00;99.90;;;;;;5077446;28;20034;-87
2023/10/25 04:56:12;;;;;;;10.80;3.13;;;9.00;99.90;;;;;;5094025;28;20036;-87
2023/10/25 04:58:37;;;;;;;6.82;2.25;;;9.00;99.90;;;;;;5077270;28;20122;-87
2023/10/25 05:01:14;;;;;;;8.20;2.75;;;8.90;99.90;;;;;;5077688;28;20470;-86
2023/10/25 05:03:41;;;;;;;8.35;3.50;;;8.90;99.90;;;;;;5077187;28;20155;-87
2023/10/25 05:06:07;;;;;;;9.05;3.60;;;8.90;99.90;;;;;;5078019;28;20040;-86
2023/10/25 05:08:34;;;;;;;8.90;3.60;;;8.90;99.90;;;;;;5076924;28;20066;-86
2023/10/25 05:11:04;;;;;;;10.40;3.20;;;8.90;99.90;;;;;;5077272;28;20492;-86
2023/10/25 05:13:30;;;;;;;7.45;3.00;;;8.90;99.90;;;;;;5076931;28;20036;-86
2023/10/25 05:15:56;;;;;;;10.98;3.38;;;8.90;99.90;;;;;;5077241;28;20498;-86
2023/10/25 05:18:22;;;;;;;11.45;3.22;;;8.90;99.90;;;;;;5077244;28;20046;-87
2023/10/25 05:20:57;;;;;;;9.10;3.15;;;8.90;99.90;;;;;;5076984;28;20040;-87
2023/10/25 05:23:31;;;;;;;9.90;3.35;;;8.90;99.90;;;;;;5093781;28;20101;-87
2023/10/25 05:25:59;;;;;;;11.55;3.13;;;8.80;99.90;;;;;;5094023;28;20499;-87
2023/10/25 05:28:25;;;;;;;8.27;2.55;;;8.80;99.90;;;;;;5077199;28;20499;-87
2023/10/25 05:30:53;;;;;;;12.25;3.42;;;8.80;99.90;;;;;;5093703;28;20045;-87
2023/10/25 05:33:20;;;;;;;7.65;2.97;;;8.80;99.90;;;;;;5093598;28;20031;-87
2023/10/25 05:35:46;;;;;;;8.68;3.33;;;8.80;99.90;;;;;;5077100;28;20043;-87
2023/10/25 05:38:13;;;;;;;7.65;2.97;;;8.70;99.90;;;;;;5076127;28;20043;-86
2023/10/25 05:40:40;;;;;;;5.75;2.20;;;8.70;99.90;;;;;;5090832;28;20047;-87
2023/10/25 05:43:12;;;;;;;7.68;2.85;;;8.70;99.90;;;;;;5076810;28;20490;-87
2023/10/25 05:45:38;;;;;;;6.65;2.58;;;8.70;99.90;;;;;;5096610;28;20047;-87
2023/10/25 05:48:09;;;;;;;9.18;3.53;;;8.70;99.90;;;;;;5106863;27;20048;-87
2023/10/25 05:50:35;;;;;;;10.18;3.85;;;8.70;99.90;;;;;;5089024;27;20063;-87
2023/10/25 05:53:01;;;;;;;9.70;3.80;;;8.70;99.90;;;;;;5088403;27;20525;-87
2023/10/25 05:55:27;;;;;;;7.35;2.85;;;8.70;99.90;;;;;;5088497;27;20039;-87
2023/10/25 05:57:53;;;;;;;10.52;3.20;;;8.70;99.90;;;;;;5089201;27;20118;-87
2023/10/25 06:00:20;;;;;;;8.82;2.80;;;8.70;99.90;;;;;;5086266;27;20173;-87
2023/10/25 06:02:46;;;;;;;7.72;2.75;;;8.70;99.90;;;;;;5088417;27;20450;-87
2023/10/25 06:05:13;;;;;;;7.45;2.78;;;8.70;99.90;;;;;;5100256;28;20040;-88
2023/10/25 06:07:39;;;;;;;9.68;3.47;;;8.70;99.90;;;;;;5097797;28;20036;-86
2023/10/25 06:10:06;;;;;;;10.60;3.28;;;8.70;99.90;;;;;;5080142;28;20042;-87
2023/10/25 06:12:32;;;;;;;12.50;2.83;;;8.70;99.90;;;;;;5088477;28;20032;-87
2023/10/25 06:14:58;;;;;;;8.18;2.60;;;8.70;99.90;;;;;;5080715;28;20031;-86
2023/10/25 06:17:23;;;;;;;6.47;2.30;;;8.70;99.90;;;;;;5104015;28;20046;-86
2023/10/25 06:19:51;;;;;;;5.72;2.15;;;8.70;99.90;;;;;;5097247;28;20074;-86
2023/10/25 06:22:17;;;;;;;7.30;2.22;;;8.70;99.90;;;;;;5095443;28;20039;-86
2023/10/25 06:24:42;;;;;;;9.18;3.22;;;8.70;99.90;;;;;;5101773;28;20035;-86
2023/10/25 06:27:08;;;;;;;5.97;2.40;;;8.70;99.90;;;;;;5102932;28;20124;-87
2023/10/25 06:29:33;;;;;;;6.28;2.30;;;8.70;99.90;;;;;;5087601;28;20031;-86
2023/10/25 06:32:00;;;;;;;7.53;2.63;;;8.70;99.90;;;;;;5100311;27;20498;-86
2023/10/25 06:34:25;;;;;;;9.82;2.63;;;8.70;99.90;;;;;;5090569;27;20508;-86
2023/10/25 06:36:51;;;;;;;8.13;2.38;;;8.70;99.90;;;;;;5090875;28;20039;-86
2023/10/25 06:39:17;;;;;;;7.18;2.67;;;8.70;99.90;;;;;;5105075;28;20624;-87
2023/10/25 06:41:43;;;;;;;6.35;2.92;;;8.70;99.90;;;;;;5081219;28;20048;-87
2023/10/25 06:44:09;;;;;;;9.65;2.92;;;8.70;99.90;;;;;;5081817;28;20032;-86
2023/10/25 06:46:35;;;;;;;11.02;3.20;;;8.70;99.90;;;;;;5081123;28;20044;-87
2023/10/25 06:49:01;;;;;;;8.52;2.72;;;8.70;99.90;;;;;;5101354;28;20047;-86
2023/10/25 06:51:27;;;;;;;5.43;2.22;;;8.80;99.90;;;;;;5079998;28;20402;-87
2023/10/25 06:53:53;;;;;;;7.93;2.38;;;8.70;99.90;;;;;;5098358;28;20039;-87
2023/10/25 06:56:20;;;;;;;6.97;2.85;;;8.80;99.90;;;;;;5081841;28;20624;-87
2023/10/25 06:58:46;;;;;;;8.85;3.03;;;8.80;99.90;;;;;;5078863;28;20031;-87
2023/10/25 07:01:13;;;;;;;8.48;3.15;;;8.80;99.90;;;;;;5088002;28;20050;-87
2023/10/25 07:03:45;;;;;;;10.95;3.35;;;8.80;99.90;;;;;;5096609;28;20042;-87
2023/10/25 07:06:12;;;;;;;13.75;2.90;;;8.80;99.90;;;;;;5105044;28;20120;-87
2023/10/25 07:08:38;;;;;;;10.98;2.78;;;8.80;99.90;;;;;;5079457;28;20050;-87
2023/10/25 07:11:03;;;;;;;9.95;3.10;;;8.80;99.90;;;;;;5079827;28;20093;-87
2023/10/25 07:13:32;;;;;;;9.90;3.13;;;8.80;99.90;;;;;;5103875;28;20035;-87
2023/10/25 07:15:58;;;;;;;6.90;3.25;;;8.80;99.90;;;;;;5079536;28;20040;-86
2023/10/25 07:18:24;;;;;;;7.88;2.95;;;8.90;99.90;;;;;;5102816;28;20088;-86
2023/10/25 07:20:50;;;;;;;9.32;3.13;;;8.90;99.90;;;;;;5095722;28;20044;-86
2023/10/25 07:23:17;;;;;;;9.95;3.53;;;8.90;99.90;;;;;;5085091;28;20036;-87
2023/10/25 07:25:43;;;;;;;6.50;2.75;;;8.90;99.90;;;;;;5096276;28;20036;-87
2023/10/25 07:28:09;;;;;;;11.48;3.25;;;8.90;99.90;;;;;;5083785;28;20036;-87
2023/10/25 07:30:35;;;;;;;7.53;2.85;;;8.90;99.90;;;;;;5078914;28;20119;-87
2023/10/25 07:33:01;;;;;;;7.65;2.90;;;9.00;99.90;;;;;;5079474;28;20055;-87
2023/10/25 07:35:27;;;;;;;10.85;3.78;;;9.00;99.90;;;;;;5078991;28;20031;-88
2023/10/25 07:37:52;;;;;;;12.27;3.92;;;9.00;99.90;;;;;;5088895;27;20035;-88
2023/10/25 07:40:18;;;;;;;10.48;3.35;;;9.00;99.90;;;;;;5109446;27;20031;-87
2023/10/25 07:42:44;;;;;;;11.02;3.88;;;9.10;99.90;;;;;;5103035;28;20118;-86
2023/10/25 07:45:09;;;;;;;10.50;4.00;;;9.10;99.90;;;;;;5101803;27;20043;-87
2023/10/25 07:47:35;;;;;;;13.68;3.97;;;9.10;99.90;;;;;;5104001;28;20032;-86
2023/10/25 07:50:02;;;;;;;10.85;3.95;;;9.20;99.90;;;;;;5095761;28;20481;-86
2023/10/25 07:52:29;;;;;;;9.25;3.42;;;9.20;99.90;;;;;;5085160;27;20035;-86
2023/10/25 07:54:54;;;;;;;8.32;3.60;;;9.20;99.90;;;;;;5084035;27;20035;-86
2023/10/25 07:57:20;;;;;;;9.60;3.85;;;9.20;99.90;;;;;;5104486;28;20207;-87
2023/10/25 07:59:46;;;;;;;10.35;3.83;;;9.30;99.90;;;;;;5078656;28;20027;-87
2023/10/25 08:02:11;;;;;;;9.77;3.95;;;9.30;99.90;;;;;;5095497;28;20524;-87
2023/10/25 08:04:37;;;;;;;8.77;3.40;;;9.30;99.90;;;;;;5095203;28;20555;-86
2023/10/25 08:07:03;;;;;;;13.93;3.47;;;9.40;99.90;;;;;;5095388;28;20074;-85
2023/10/25 08:09:30;;;;;;;10.48;3.60;;;9.40;99.90;;;;;;5094704;28;20035;-86
2023/10/25 08:11:55;;;;;;;9.45;4.25;;;9.40;99.90;;;;;;5094713;28;20084;-87
2023/10/25 08:14:21;;;;;;;10.57;4.13;;;9.50;99.90;;;;;;5094655;28;20035;-86
2023/10/25 08:16:46;;;;;;;10.80;3.72;;;9.50;99.90;;;;;;5077897;28;20236;-86
2023/10/25 08:19:12;;;;;;;13.00;4.75;;;9.50;99.90;;;;;;5077438;28;20050;-85
2023/10/25 08:21:38;;;;;;;9.43;4.10;;;9.60;99.90;;;;;;5077564;28;20063;-85
2023/10/25 08:24:05;;;;;;;10.75;4.22;;;9.60;99.90;;;;;;5077515;28;20039;-85
2023/10/25 08:26:35;;;;;;;9.80;4.43;;;9.60;99.90;;;;;;5077499;28;20373;-85
2023/10/25 08:29:02;;;;;;;10.35;4.07;;;9.70;99.90;;;;;;5094401;28;20032;-86
2023/10/25 08:31:27;;;;;;;9.80;4.03;;;9.70;99.90;;;;;;5085929;28;20071;-85
2023/10/25 08:33:53;;;;;;;10.90;4.60;;;9.80;99.90;;;;;;5077858;28;20067;-86
2023/10/25 08:36:18;;;;;;;9.40;3.75;;;9.80;99.90;;;;;;5093735;28;20103;-87
2023/10/25 08:38:44;;;;;;;9.18;3.95;;;9.80;99.90;;;;;;5093875;28;20482;-86
2023/10/25 08:41:09;;;;;;;11.27;4.68;;;9.90;99.90;;;;;;5077794;28;20045;-87
2023/10/25 08:43:37;;;;;;;12.30;4.85;;;9.90;99.90;;;;;;5077546;28;20482;-86
2023/10/25 08:46:03;;;;;;;8.65;3.63;;;9.90;99.90;;;;;;5077392;28;20071;-86
2023/10/25 08:48:30;;;;;;;12.15;5.43;;;10.00;99.90;;;;;;5077660;28;20035;-86
2023/10/25 08:50:58;;;;;;;15.02;4.85;;;10.10;99.90;;;;;;5094231;28;20042;-87
2023/10/25 08:53:24;;;;;;;8.23;3.65;;;10.10;99.90;;;;;;5076912;28;20035;-87
2023/10/25 08:55:55;;;;;;;10.05;4.93;;;10.20;99.90;;;;;;5077287;28;20078;-87
2023/10/25 08:58:21;;;;;;;8.70;3.78;;;10.20;99.90;;;;;;5094308;28;20040;-88
2023/10/25 09:00:47;;;;;;;11.85;4.63;;;10.30;99.90;;;;;;5077215;28;20043;-87
2023/10/25 09:03:31;;;;;;;14.50;9.10;;;10.40;99.90;;;;;;5077290;28;20042;-88
2023/10/25 09:05:58;;;;;;;10.15;4.47;;;10.60;99.90;;;;;;5094542;28;20047;-88
2023/10/25 09:08:27;;;;;;;11.05;4.43;;;10.60;99.90;;;;;;5078156;28;20553;-87
2023/10/25 09:11:19;;;;;;;14.10;6.40;;;10.70;99.90;;;;;;5077402;28;20040;-88
2023/10/25 09:13:54;;;;;;;10.85;4.72;;;10.80;99.90;;;;;;4996372;28;20057;-88
2023/10/25 09:16:19;;;;;;;12.02;5.20;;;10.90;99.90;;;;;;5012479;28;20126;-88
2023/10/25 09:18:45;;;;;;;10.07;4.10;;;11.00;99.90;;;;;;5012258;28;20088;-88
2023/10/25 09:21:10;;;;;;;11.00;4.85;;;11.20;99.90;;;;;;5012521;28;20055;-88
2023/10/25 09:23:36;;;;;;;10.07;4.68;;;11.30;99.90;;;;;;5016120;28;20041;-88
2023/10/25 09:26:16;;;;;;;12.02;4.53;;;11.40;99.90;;;;;;5024615;28;20124;-87
2023/10/25 09:28:42;;;;;;;13.88;7.90;;;11.50;99.90;;;;;;4996217;28;20049;-87
2023/10/25 09:31:25;;;;;;;8.82;4.13;;;11.60;99.90;;;;;;5012239;28;20052;-88
2023/10/25 09:33:51;;;;;;;8.38;3.88;;;11.60;99.90;;;;;;5011262;28;20045;-88
2023/10/25 09:36:21;;;;;;;11.13;5.07;;;11.60;99.90;;;;;;5023452;28;20619;-88
2023/10/25 09:38:49;;;;;;;11.52;7.10;;;11.60;99.90;;;;;;4992817;28;20053;-88
2023/10/25 09:41:19;;;;;;;8.95;3.63;;;11.70;99.90;;;;;;5017334;28;20045;-88
2023/10/25 09:43:49;;;;;;;12.38;6.97;;;11.70;99.90;;;;;;4993140;28;20056;-88
2023/10/25 09:46:29;;;;;;;12.73;3.90;;;11.80;99.90;;;;;;5009474;28;20041;-88
2023/10/25 09:49:06;;;;;;;7.95;3.35;;;11.80;99.90;;;;;;4998856;28;20497;-88
2023/10/25 09:51:47;;;;;;;9.43;3.30;;;11.80;99.90;;;;;;5074448;28;20055;-88
2023/10/25 09:54:15;;;;;;;8.82;3.88;;;11.80;99.90;;;;;;5080281;28;20058;-87
2023/10/25 09:56:42;;;;;;;8.68;3.03;;;11.80;99.90;;;;;;5101505;28;20383;-88
2023/10/25 09:59:11;;;;;;;11.95;3.83;;;11.80;99.90;;;;;;5099836;28;20046;-88
2023/10/25 10:01:40;;;;;;;10.35;4.28;;;11.80;99.90;;;;;;5098067;28;20040;-88
2023/10/25 10:04:09;;;;;;;8.02;3.35;;;11.80;99.90;;;;;;5083333;28;20073;-87
2023/10/25 10:06:44;;;;;;;7.45;3.13;;;11.80;99.90;;;;;;5079402;28;20122;-85
2023/10/25 10:09:30;;;;;;;9.27;3.05;;;11.90;99.90;;;;;;5077513;28;20028;-87
2023/10/25 10:12:07;;;;;;;7.53;3.22;;;11.80;99.90;;;;;;5093877;28;20036;-87
2023/10/25 10:14:35;;;;;;;7.35;3.25;;;11.90;99.90;;;;;;5077481;28;20039;-87
2023/10/25 10:17:14;;;;;;;10.68;6.15;;;11.90;99.90;;;;;;5093570;28;20130;-87
2023/10/25 10:19:42;;;;;;;14.10;7.70;;;12.00;99.90;;;;;;5093711;28;20092;-87
2023/10/25 10:22:13;;;;;;;9.63;3.42;;;12.10;99.90;;;;;;5093268;28;20039;-87
2023/10/25 10:25:00;;;;;;;11.60;3.80;;;12.10;99.90;;;;;;5076574;28;20050;-87
2023/10/25 10:27:52;;;;;;;7.72;2.90;;;12.00;99.90;;;;;;5083719;28;20051;-87
2023/10/25 10:30:34;;;;;;;10.38;3.17;;;12.00;99.90;;;;;;5096881;28;20493;-88
2023/10/25 10:33:01;;;;;;;7.70;2.88;;;12.10;99.90;;;;;;5097523;28;20044;-88
2023/10/25 10:35:28;;;;;;;9.63;3.08;;;12.10;99.90;;;;;;5087327;28;20095;-87
2023/10/25 10:37:57;;;;;;;9.20;3.20;;;12.10;99.90;;;;;;5080074;28;20035;-87
2023/10/25 10:40:23;;;;;;;10.35;5.32;;;12.20;99.90;;;;;;5083960;27;20035;-88
2023/10/25 10:42:49;;;;;;;8.55;3.20;;;12.20;99.90;;;;;;5107951;27;20046;-88
2023/10/25 10:45:17;;;;;;;9.02;3.03;;;12.20;99.90;;;;;;5110035;27;20035;-88
2023/10/25 10:47:57;;;;;;;7.95;3.17;;;12.20;99.90;;;;;;5091606;27;20031;-88
2023/10/25 10:50:25;;;;;;;12.23;3.50;;;12.20;99.90;;;;;;5089822;27;20383;-86
2023/10/25 10:52:55;;;;;;;7.63;3.30;;;12.30;99.90;;;;;;5090725;27;20043;-87
2023/10/25 10:55:22;;;;;;;8.15;3.08;;;12.30;99.90;;;;;;5108394;27;20562;-88
2023/10/25 10:57:48;;;;;;;10.55;3.67;;;12.30;99.90;;;;;;5108262;27;20043;-88
2023/10/25 11:00:18;;;;;;;12.73;5.60;;;12.20;99.90;;;;;;5109081;27;20034;-88
2023/10/25 11:02:48;;;;;;;8.48;2.85;;;12.30;99.90;;;;;;5092461;27;20027;-87
2023/10/25 11:05:22;;;;;;;11.32;6.22;;;12.30;99.90;;;;;;5110331;27;20027;-88
2023/10/25 11:07:48;;;;;;;11.70;5.07;;;12.30;99.90;;;;;;5094176;27;20078;-87
2023/10/25 11:10:15;;;;;;;7.93;3.22;;;12.40;99.90;;;;;;5110147;27;20035;-87
2023/10/25 11:12:41;;;;;;;8.43;2.97;;;12.30;99.90;;;;;;5094072;27;20466;-87
2023/10/25 11:15:07;;;;;;;7.35;3.00;;;12.30;99.90;;;;;;5089435;27;20517;-88
2023/10/25 11:17:33;;;;;;;7.78;2.72;;;12.30;99.90;;;;;;5086932;28;20042;-88
2023/10/25 11:19:59;;;;;;;8.68;2.55;;;12.30;99.90;;;;;;5104551;27;20035;-87
2023/10/25 11:22:25;;;;;;;11.18;5.10;;;12.20;99.90;;;;;;5085766;28;20398;-87
2023/10/25 11:24:52;;;;;;;8.45;2.78;;;12.30;99.90;;;;;;5087791;27;20035;-87
2023/10/25 11:27:18;;;;;;;8.27;2.67;;;12.30;99.90;;;;;;5102374;28;20032;-87
2023/10/25 11:29:44;;;;;;;10.10;2.92;;;12.30;99.90;;;;;;5106085;27;20076;-88
2023/10/25 11:32:14;;;;;;;8.73;2.50;;;12.20;99.90;;;;;;5085883;27;20027;-88
2023/10/25 11:34:42;;;;;;;11.20;5.13;;;12.20;99.90;;;;;;5104869;27;20044;-88
2023/10/25 11:37:12;;;;;;;7.35;2.85;;;12.30;99.90;;;;;;5103525;27;20120;-87
2023/10/25 11:40:03;;;;;;;8.27;2.83;;;12.30;99.90;;;;;;5083385;27;20031;-89
2023/10/25 11:42:32;;;;;;;6.97;2.55;;;12.20;99.90;;;;;;5100337;27;20035;-87
2023/10/25 11:45:05;;;;;;;8.48;2.42;;;12.20;99.90;;;;;;5103968;27;20035;-88
2023/10/25 11:47:32;;;;;;;10.88;3.15;;;12.20;99.90;;;;;;5083458;28;20069;-88
2023/10/25 11:50:03;;;;;;;7.63;2.75;;;12.20;99.90;;;;;;5077579;28;20414;-88
2023/10/25 11:52:30;;;;;;;11.85;5.25;;;12.20;99.90;;;;;;5100757;27;20722;-88
2023/10/25 11:54:58;;;;;;;6.97;2.72;;;12.20;99.90;;;;;;5101079;27;20405;-88
2023/10/25 11:57:24;;;;;;;6.93;2.80;;;12.20;99.90;;;;;;5099483;27;20498;-88
2023/10/25 11:59:51;;;;;;;6.72;2.70;;;12.10;99.90;;;;;;5085249;28;20052;-89
2023/10/25 12:02:20;;;;;;;6.80;2.83;;;12.10;99.90;;;;;;5098144;28;20071;-87
2023/10/25 12:04:45;;;;;;;10.82;2.40;;;12.10;99.90;;;;;;5078356;28;20039;-88
2023/10/25 12:07:11;;;;;;;6.40;2.35;;;12.10;99.90;;;;;;5095342;28;20102;-87
2023/10/25 12:09:38;;;;;;;5.70;2.72;;;12.10;99.90;;;;;;5095477;28;20039;-87
2023/10/25 12:12:07;;;;;;;8.25;3.00;;;12.10;99.90;;;;;;5095068;28;20114;-88
2023/10/25 12:14:32;;;;;;;5.72;2.22;;;12.10;99.90;;;;;;5086796;28;20035;-87
2023/10/25 12:16:58;;;;;;;10.75;2.78;;;12.10;99.90;;;;;;5078563;28;20066;-87
2023/10/25 12:19:24;;;;;;;11.27;3.03;;;12.10;99.90;;;;;;5078477;28;20036;-88
2023/10/25 12:21:55;;;;;;;6.25;2.20;;;12.10;99.90;;;;;;5103531;28;20537;-87
2023/10/25 12:24:25;;;;;;;8.57;3.03;;;12.20;99.90;;;;;;5086490;28;20048;-87
2023/10/25 12:26:52;;;;;;;6.80;2.60;;;12.20;99.90;;;;;;5097557;28;20035;-88
2023/10/25 12:29:18;;;;;;;6.95;2.65;;;12.20;99.90;;;;;;5097393;28;20063;-88
2023/10/25 12:31:45;;;;;;;9.05;4.70;;;12.20;99.90;;;;;;5095059;28;20070;-88
2023/10/25 12:34:11;;;;;;;6.60;2.35;;;12.30;99.90;;;;;;5077913;28;20042;-87
2023/10/25 12:36:36;;;;;;;16.67;3.20;;;12.30;99.90;;;;;;5078651;28;20035;-87
2023/10/25 12:39:02;;;;;;;8.73;2.53;;;12.30;99.90;;;;;;5099113;28;20039;-87
2023/10/25 12:41:28;;;;;;;7.82;3.08;;;12.20;99.90;;;;;;5077640;28;20062;-88
2023/10/25 12:43:53;;;;;;;7.78;2.55;;;12.30;99.90;;;;;;5078162;28;20043;-87
2023/10/25 12:46:19;;;;;;;9.75;4.25;;;12.30;99.90;;;;;;5077749;28;20101;-87
2023/10/25 12:48:44;;;;;;;7.95;2.55;;;12.30;99.90;;;;;;5094537;28;20123;-88
2023/10/25 12:51:10;;;;;;;11.25;4.55;;;12.40;99.90;;;;;;5077285;28;20035;-88